Ettrick, Wisconsin
Current Conditions -  °F | °C
As of 11:53 AM on Sunday 21 Dec 2014 (Local Time) from KLSE Reporting Station
Haze Haze  
Wind Chill: 30°   Ceiling: 800
Heat Index: 38°   Visibility: 4mi
Dew Point: 34°   Wind: 12mph
Humidity: 86%   Direction: 160°SSE
Pressure: 29.93"   Gusts: NA
Location:  44.17°N, 91.27°W
Report Text: KLSE 211753Z 16010KT 4SM BR OVC008 03/01 A2993 RMK AO2 SLP145 T00330011 10033 20011 58022
Loading
Personal Weather Stations






























Interactive Weather Map New forecast layout! Learn more

10-Day Weather Forecast

Advertisements
Track Severe Weather on mobile